sensor_id;sensor_type;location;lat;lon;timestamp;P1;durP1;ratioP1;P2;durP2;ratioP2
32172;SDS011;18679;45.190;5.722;2023-06-05T00:00:19;4.72;;;2.13;;
32172;SDS011;18679;45.190;5.722;2023-06-05T00:03:20;6.45;;;2.08;;
32172;SDS011;18679;45.190;5.722;2023-06-05T00:06:21;4.13;;;2.35;;
32172;SDS011;18679;45.190;5.722;2023-06-05T00:09:22;5.07;;;2.10;;
32172;SDS011;18679;45.190;5.722;2023-06-05T00:12:23;4.30;;;2.40;;
32172;SDS011;18679;45.190;5.722;2023-06-05T00:15:24;8.88;;;2.78;;
32172;SDS011;18679;45.190;5.722;2023-06-05T00:18:25;6.15;;;2.85;;
32172;SDS011;18679;45.190;5.722;2023-06-05T00:21:26;6.78;;;3.50;;
32172;SDS011;18679;45.190;5.722;2023-06-05T00:24:28;7.80;;;2.65;;
32172;SDS011;18679;45.190;5.722;2023-06-05T00:27:29;7.15;;;2.75;;
32172;SDS011;18679;45.190;5.722;2023-06-05T00:30:30;6.05;;;3.83;;
32172;SDS011;18679;45.190;5.722;2023-06-05T00:33:31;5.68;;;3.40;;
32172;SDS011;18679;45.190;5.722;2023-06-05T00:36:32;12.05;;;3.47;;
32172;SDS011;18679;45.190;5.722;2023-06-05T00:39:33;8.82;;;3.80;;
32172;SDS011;18679;45.190;5.722;2023-06-05T00:42:34;10.63;;;4.95;;
32172;SDS011;18679;45.190;5.722;2023-06-05T00:45:35;8.20;;;4.88;;
32172;SDS011;18679;45.190;5.722;2023-06-05T00:48:36;12.73;;;5.15;;
32172;SDS011;18679;45.190;5.722;2023-06-05T00:51:38;7.82;;;5.13;;
32172;SDS011;18679;45.190;5.722;2023-06-05T00:54:41;8.98;;;5.22;;
32172;SDS011;18679;45.190;5.722;2023-06-05T00:57:44;9.80;;;5.95;;
32172;SDS011;18679;45.190;5.722;2023-06-05T01:00:45;9.10;;;5.03;;
32172;SDS011;18679;45.190;5.722;2023-06-05T01:03:50;9.23;;;5.07;;
32172;SDS011;18679;45.190;5.722;2023-06-05T01:06:53;11.13;;;4.43;;
32172;SDS011;18679;45.190;5.722;2023-06-05T01:09:54;5.82;;;3.85;;
32172;SDS011;18679;45.190;5.722;2023-06-05T01:16:25;5.32;;;3.60;;
32172;SDS011;18679;45.190;5.722;2023-06-05T01:19:31;7.68;;;3.97;;
32172;SDS011;18679;45.190;5.722;2023-06-05T01:22:33;7.80;;;3.40;;
32172;SDS011;18679;45.190;5.722;2023-06-05T01:25:36;8.52;;;3.45;;
32172;SDS011;18679;45.190;5.722;2023-06-05T01:28:38;6.55;;;3.65;;
32172;SDS011;18679;45.190;5.722;2023-06-05T01:31:40;12.85;;;3.50;;
32172;SDS011;18679;45.190;5.722;2023-06-05T01:34:44;4.88;;;2.85;;
32172;SDS011;18679;45.190;5.722;2023-06-05T01:37:49;4.47;;;2.85;;
32172;SDS011;18679;45.190;5.722;2023-06-05T01:40:51;9.23;;;2.80;;
32172;SDS011;18679;45.190;5.722;2023-06-05T01:43:53;8.30;;;2.85;;
32172;SDS011;18679;45.190;5.722;2023-06-05T01:46:55;7.90;;;2.00;;
32172;SDS011;18679;45.190;5.722;2023-06-05T01:49:57;5.90;;;2.53;;
32172;SDS011;18679;45.190;5.722;2023-06-05T01:52:57;2.67;;;1.50;;
32172;SDS011;18679;45.190;5.722;2023-06-05T01:56:01;8.27;;;1.70;;
32172;SDS011;18679;45.190;5.722;2023-06-05T01:59:04;2.03;;;1.40;;
32172;SDS011;18679;45.190;5.722;2023-06-05T02:02:07;2.65;;;1.70;;
32172;SDS011;18679;45.190;5.722;2023-06-05T02:05:09;5.03;;;1.90;;
32172;SDS011;18679;45.190;5.722;2023-06-05T02:08:11;10.27;;;3.35;;
32172;SDS011;18679;45.190;5.722;2023-06-05T02:11:13;5.38;;;2.60;;
32172;SDS011;18679;45.190;5.722;2023-06-05T02:14:14;5.00;;;2.75;;
32172;SDS011;18679;45.190;5.722;2023-06-05T02:17:15;4.45;;;2.20;;
32172;SDS011;18679;45.190;5.722;2023-06-05T02:20:17;7.65;;;2.08;;
32172;SDS011;18679;45.190;5.722;2023-06-05T02:23:18;6.82;;;2.28;;
32172;SDS011;18679;45.190;5.722;2023-06-05T02:26:19;4.97;;;2.00;;
32172;SDS011;18679;45.190;5.722;2023-06-05T02:29:22;3.03;;;1.30;;
32172;SDS011;18679;45.190;5.722;2023-06-05T02:32:23;2.30;;;1.30;;
32172;SDS011;18679;45.190;5.722;2023-06-05T02:35:29;12.10;;;1.58;;
32172;SDS011;18679;45.190;5.722;2023-06-05T02:38:30;4.18;;;1.55;;
32172;SDS011;18679;45.190;5.722;2023-06-05T02:41:31;4.40;;;1.38;;
32172;SDS011;18679;45.190;5.722;2023-06-05T02:44:32;2.47;;;1.48;;
32172;SDS011;18679;45.190;5.722;2023-06-05T02:47:34;3.88;;;1.23;;
32172;SDS011;18679;45.190;5.722;2023-06-05T02:50:36;7.68;;;1.58;;
32172;SDS011;18679;45.190;5.722;2023-06-05T02:53:39;1.88;;;1.58;;
32172;SDS011;18679;45.190;5.722;2023-06-05T02:56:40;1.98;;;1.60;;
32172;SDS011;18679;45.190;5.722;2023-06-05T02:59:41;2.97;;;1.63;;
32172;SDS011;18679;45.190;5.722;2023-06-05T03:02:46;2.08;;;1.50;;
32172;SDS011;18679;45.190;5.722;2023-06-05T03:05:52;6.57;;;1.90;;
32172;SDS011;18679;45.190;5.722;2023-06-05T03:08:53;3.17;;;1.38;;
32172;SDS011;18679;45.190;5.722;2023-06-05T03:11:57;2.22;;;1.30;;
32172;SDS011;18679;45.190;5.722;2023-06-05T03:14:59;2.63;;;1.30;;
32172;SDS011;18679;45.190;5.722;2023-06-05T03:18:02;2.08;;;1.30;;
32172;SDS011;18679;45.190;5.722;2023-06-05T03:21:03;1.60;;;1.20;;
32172;SDS011;18679;45.190;5.722;2023-06-05T03:24:06;1.85;;;1.25;;
32172;SDS011;18679;45.190;5.722;2023-06-05T03:27:09;5.28;;;1.25;;
32172;SDS011;18679;45.190;5.722;2023-06-05T03:30:11;4.85;;;1.25;;
32172;SDS011;18679;45.190;5.722;2023-06-05T03:33:18;7.15;;;1.33;;
32172;SDS011;18679;45.190;5.722;2023-06-05T03:36:20;2.33;;;1.20;;
32172;SDS011;18679;45.190;5.722;2023-06-05T03:39:23;5.35;;;1.30;;
32172;SDS011;18679;45.190;5.722;2023-06-05T03:42:24;12.98;;;1.52;;
32172;SDS011;18679;45.190;5.722;2023-06-05T03:45:25;7.35;;;1.55;;
32172;SDS011;18679;45.190;5.722;2023-06-05T03:48:27;2.67;;;1.23;;
32172;SDS011;18679;45.190;5.722;2023-06-05T03:51:29;3.42;;;1.48;;
32172;SDS011;18679;45.190;5.722;2023-06-05T03:54:31;2.13;;;1.52;;
32172;SDS011;18679;45.190;5.722;2023-06-05T03:57:33;4.75;;;1.80;;
32172;SDS011;18679;45.190;5.722;2023-06-05T04:00:34;15.23;;;1.60;;
32172;SDS011;18679;45.190;5.722;2023-06-05T04:03:36;4.60;;;1.50;;
32172;SDS011;18679;45.190;5.722;2023-06-05T04:06:38;2.85;;;1.27;;
32172;SDS011;18679;45.190;5.722;2023-06-05T04:09:41;2.05;;;1.60;;
32172;SDS011;18679;45.190;5.722;2023-06-05T04:12:43;3.00;;;1.48;;
32172;SDS011;18679;45.190;5.722;2023-06-05T04:15:44;4.15;;;1.77;;
32172;SDS011;18679;45.190;5.722;2023-06-05T04:18:45;6.03;;;1.60;;
32172;SDS011;18679;45.190;5.722;2023-06-05T04:21:46;2.80;;;1.23;;
32172;SDS011;18679;45.190;5.722;2023-06-05T04:24:47;2.25;;;1.38;;
32172;SDS011;18679;45.190;5.722;2023-06-05T04:27:49;2.78;;;1.27;;
32172;SDS011;18679;45.190;5.722;2023-06-05T04:30:51;5.90;;;1.30;;
32172;SDS011;18679;45.190;5.722;2023-06-05T04:33:53;6.85;;;1.58;;
32172;SDS011;18679;45.190;5.722;2023-06-05T04:36:54;3.28;;;1.30;;
32172;SDS011;18679;45.190;5.722;2023-06-05T04:39:54;1.60;;;1.35;;
32172;SDS011;18679;45.190;5.722;2023-06-05T04:42:55;6.57;;;1.33;;
32172;SDS011;18679;45.190;5.722;2023-06-05T04:45:59;3.03;;;1.60;;
32172;SDS011;18679;45.190;5.722;2023-06-05T04:49:00;2.83;;;1.83;;
32172;SDS011;18679;45.190;5.722;2023-06-05T04:52:02;5.93;;;1.40;;
32172;SDS011;18679;45.190;5.722;2023-06-05T04:55:04;3.03;;;1.77;;
32172;SDS011;18679;45.190;5.722;2023-06-05T04:58:06;2.60;;;1.65;;
32172;SDS011;18679;45.190;5.722;2023-06-05T05:01:07;3.75;;;2.10;;
32172;SDS011;18679;45.190;5.722;2023-06-05T05:04:12;4.80;;;2.10;;
32172;SDS011;18679;45.190;5.722;2023-06-05T05:07:14;5.88;;;1.80;;
32172;SDS011;18679;45.190;5.722;2023-06-05T05:10:17;3.75;;;1.88;;
32172;SDS011;18679;45.190;5.722;2023-06-05T05:13:19;11.25;;;2.45;;
32172;SDS011;18679;45.190;5.722;2023-06-05T05:16:20;4.30;;;2.00;;
32172;SDS011;18679;45.190;5.722;2023-06-05T05:19:21;4.65;;;2.50;;
32172;SDS011;18679;45.190;5.722;2023-06-05T05:22:23;5.95;;;2.22;;
32172;SDS011;18679;45.190;5.722;2023-06-05T05:25:24;3.30;;;1.88;;
32172;SDS011;18679;45.190;5.722;2023-06-05T05:28:25;4.25;;;2.17;;
32172;SDS011;18679;45.190;5.722;2023-06-05T05:31:27;4.82;;;2.55;;
32172;SDS011;18679;45.190;5.722;2023-06-05T05:34:29;7.45;;;2.80;;
32172;SDS011;18679;45.190;5.722;2023-06-05T05:37:31;4.15;;;2.28;;
32172;SDS011;18679;45.190;5.722;2023-06-05T05:40:32;4.28;;;2.60;;
32172;SDS011;18679;45.190;5.722;2023-06-05T05:43:33;4.22;;;2.45;;
32172;SDS011;18679;45.190;5.722;2023-06-05T05:46:34;3.70;;;2.42;;
32172;SDS011;18679;45.190;5.722;2023-06-05T05:49:34;6.95;;;2.30;;
32172;SDS011;18679;45.190;5.722;2023-06-05T05:52:35;4.68;;;2.80;;
32172;SDS011;18679;45.190;5.722;2023-06-05T05:55:36;7.80;;;2.97;;
32172;SDS011;18679;45.190;5.722;2023-06-05T05:58:37;7.60;;;2.63;;
32172;SDS011;18679;45.190;5.722;2023-06-05T06:01:38;4.80;;;3.15;;
32172;SDS011;18679;45.190;5.722;2023-06-05T06:04:38;4.55;;;2.70;;
32172;SDS011;18679;45.190;5.722;2023-06-05T06:07:40;5.10;;;2.58;;
32172;SDS011;18679;45.190;5.722;2023-06-05T06:10:43;8.60;;;2.88;;
32172;SDS011;18679;45.190;5.722;2023-06-05T06:13:44;7.90;;;3.00;;
32172;SDS011;18679;45.190;5.722;2023-06-05T06:16:44;6.63;;;3.25;;
32172;SDS011;18679;45.190;5.722;2023-06-05T06:19:45;10.57;;;3.10;;
32172;SDS011;18679;45.190;5.722;2023-06-05T06:22:48;4.03;;;2.60;;
32172;SDS011;18679;45.190;5.722;2023-06-05T06:25:49;6.88;;;2.30;;
32172;SDS011;18679;45.190;5.722;2023-06-05T06:28:52;6.38;;;2.55;;
32172;SDS011;18679;45.190;5.722;2023-06-05T06:31:54;4.07;;;2.30;;
32172;SDS011;18679;45.190;5.722;2023-06-05T06:34:55;8.60;;;2.72;;
32172;SDS011;18679;45.190;5.722;2023-06-05T06:37:57;5.43;;;3.05;;
32172;SDS011;18679;45.190;5.722;2023-06-05T06:40:59;7.43;;;3.25;;
32172;SDS011;18679;45.190;5.722;2023-06-05T06:44:00;15.10;;;4.15;;
32172;SDS011;18679;45.190;5.722;2023-06-05T06:47:01;4.45;;;3.20;;
32172;SDS011;18679;45.190;5.722;2023-06-05T06:50:02;6.93;;;3.75;;
32172;SDS011;18679;45.190;5.722;2023-06-05T06:53:03;3.72;;;2.58;;
32172;SDS011;18679;45.190;5.722;2023-06-05T06:56:04;12.65;;;3.05;;
32172;SDS011;18679;45.190;5.722;2023-06-05T06:59:14;10.98;;;3.65;;
32172;SDS011;18679;45.190;5.722;2023-06-05T07:02:16;8.63;;;3.53;;
32172;SDS011;18679;45.190;5.722;2023-06-05T07:05:18;5.30;;;2.75;;
32172;SDS011;18679;45.190;5.722;2023-06-05T07:08:20;8.10;;;3.22;;
32172;SDS011;18679;45.190;5.722;2023-06-05T07:11:20;4.63;;;3.08;;
32172;SDS011;18679;45.190;5.722;2023-06-05T07:14:22;6.18;;;2.97;;
32172;SDS011;18679;45.190;5.722;2023-06-05T07:17:22;4.20;;;2.58;;
32172;SDS011;18679;45.190;5.722;2023-06-05T07:20:23;4.20;;;2.83;;
32172;SDS011;18679;45.190;5.722;2023-06-05T07:23:24;8.25;;;3.00;;
32172;SDS011;18679;45.190;5.722;2023-06-05T07:26:25;5.10;;;2.30;;
32172;SDS011;18679;45.190;5.722;2023-06-05T07:29:27;5.47;;;2.25;;
32172;SDS011;18679;45.190;5.722;2023-06-05T07:32:28;3.70;;;2.10;;
32172;SDS011;18679;45.190;5.722;2023-06-05T07:35:29;5.10;;;2.50;;
32172;SDS011;18679;45.190;5.722;2023-06-05T07:38:30;6.32;;;2.35;;
32172;SDS011;18679;45.190;5.722;2023-06-05T07:41:32;11.73;;;2.38;;
32172;SDS011;18679;45.190;5.722;2023-06-05T07:44:33;4.03;;;2.05;;
32172;SDS011;18679;45.190;5.722;2023-06-05T07:47:34;4.95;;;2.25;;
32172;SDS011;18679;45.190;5.722;2023-06-05T07:50:35;2.58;;;1.85;;
32172;SDS011;18679;45.190;5.722;2023-06-05T07:53:36;3.33;;;1.90;;
32172;SDS011;18679;45.190;5.722;2023-06-05T07:56:37;5.90;;;2.30;;
32172;SDS011;18679;45.190;5.722;2023-06-05T07:59:38;1.90;;;1.75;;
32172;SDS011;18679;45.190;5.722;2023-06-05T08:02:39;3.17;;;2.08;;
32172;SDS011;18679;45.190;5.722;2023-06-05T08:05:40;2.75;;;2.00;;
32172;SDS011;18679;45.190;5.722;2023-06-05T08:08:44;4.75;;;2.35;;
32172;SDS011;18679;45.190;5.722;2023-06-05T08:11:45;3.83;;;2.30;;
32172;SDS011;18679;45.190;5.722;2023-06-05T08:14:46;2.67;;;2.15;;
32172;SDS011;18679;45.190;5.722;2023-06-05T08:17:46;4.32;;;2.42;;
32172;SDS011;18679;45.190;5.722;2023-06-05T08:20:47;6.30;;;2.20;;
32172;SDS011;18679;45.190;5.722;2023-06-05T08:23:48;2.40;;;1.85;;
32172;SDS011;18679;45.190;5.722;2023-06-05T08:26:49;2.50;;;1.83;;
32172;SDS011;18679;45.190;5.722;2023-06-05T08:29:50;2.33;;;1.90;;
32172;SDS011;18679;45.190;5.722;2023-06-05T08:32:51;2.10;;;1.83;;
32172;SDS011;18679;45.190;5.722;2023-06-05T08:35:52;2.78;;;1.83;;
32172;SDS011;18679;45.190;5.722;2023-06-05T08:38:53;3.28;;;2.10;;
32172;SDS011;18679;45.190;5.722;2023-06-05T08:41:54;2.45;;;1.88;;
32172;SDS011;18679;45.190;5.722;2023-06-05T08:45:00;3.60;;;2.30;;
32172;SDS011;18679;45.190;5.722;2023-06-05T08:48:02;6.65;;;2.00;;
32172;SDS011;18679;45.190;5.722;2023-06-05T08:51:05;4.38;;;2.70;;
32172;SDS011;18679;45.190;5.722;2023-06-05T08:54:10;4.93;;;2.15;;
32172;SDS011;18679;45.190;5.722;2023-06-05T08:57:15;5.68;;;2.13;;
32172;SDS011;18679;45.190;5.722;2023-06-05T09:00:16;3.38;;;1.90;;
32172;SDS011;18679;45.190;5.722;2023-06-05T09:03:17;4.93;;;2.15;;
32172;SDS011;18679;45.190;5.722;2023-06-05T09:06:20;4.85;;;2.50;;
32172;SDS011;18679;45.190;5.722;2023-06-05T09:09:21;7.18;;;2.30;;
32172;SDS011;18679;45.190;5.722;2023-06-05T09:12:22;3.50;;;2.08;;
32172;SDS011;18679;45.190;5.722;2023-06-05T09:15:29;5.80;;;2.30;;
32172;SDS011;18679;45.190;5.722;2023-06-05T09:18:31;4.90;;;2.10;;
32172;SDS011;18679;45.190;5.722;2023-06-05T09:21:37;3.45;;;2.10;;
32172;SDS011;18679;45.190;5.722;2023-06-05T09:24:38;2.58;;;1.90;;
32172;SDS011;18679;45.190;5.722;2023-06-05T09:27:40;3.22;;;2.30;;
32172;SDS011;18679;45.190;5.722;2023-06-05T09:30:57;2.75;;;1.80;;
32172;SDS011;18679;45.190;5.722;2023-06-05T09:34:02;2.63;;;1.73;;
32172;SDS011;18679;45.190;5.722;2023-06-05T09:37:04;2.30;;;1.80;;
32172;SDS011;18679;45.190;5.722;2023-06-05T09:40:07;2.42;;;1.85;;
32172;SDS011;18679;45.190;5.722;2023-06-05T09:43:21;3.28;;;2.10;;
32172;SDS011;18679;45.190;5.722;2023-06-05T09:46:24;4.53;;;1.85;;
32172;SDS011;18679;45.190;5.722;2023-06-05T09:49:28;4.57;;;2.20;;
32172;SDS011;18679;45.190;5.722;2023-06-05T09:52:30;3.10;;;2.08;;
32172;SDS011;18679;45.190;5.722;2023-06-05T09:55:35;6.78;;;2.20;;
32172;SDS011;18679;45.190;5.722;2023-06-05T09:58:37;2.90;;;2.00;;
32172;SDS011;18679;45.190;5.722;2023-06-05T10:01:39;3.42;;;2.13;;
32172;SDS011;18679;45.190;5.722;2023-06-05T10:07:46;4.72;;;2.15;;
32172;SDS011;18679;45.190;5.722;2023-06-05T10:10:55;5.22;;;2.08;;
32172;SDS011;18679;45.190;5.722;2023-06-05T10:13:57;4.80;;;2.55;;
32172;SDS011;18679;45.190;5.722;2023-06-05T10:17:01;5.65;;;2.00;;
32172;SDS011;18679;45.190;5.722;2023-06-05T10:20:03;3.67;;;2.08;;
32172;SDS011;18679;45.190;5.722;2023-06-05T10:23:05;6.10;;;2.05;;
32172;SDS011;18679;45.190;5.722;2023-06-05T10:26:07;3.42;;;2.30;;
32172;SDS011;18679;45.190;5.722;2023-06-05T10:36:00;3.00;;;2.15;;
32172;SDS011;18679;45.190;5.722;2023-06-05T10:39:11;9.07;;;2.10;;
32172;SDS011;18679;45.190;5.722;2023-06-05T10:42:22;5.45;;;2.30;;
32172;SDS011;18679;45.190;5.722;2023-06-05T10:45:30;4.28;;;2.33;;
32172;SDS011;18679;45.190;5.722;2023-06-05T10:52:34;3.63;;;2.08;;
32172;SDS011;18679;45.190;5.722;2023-06-05T10:55:41;4.72;;;2.30;;
32172;SDS011;18679;45.190;5.722;2023-06-05T11:05:16;3.42;;;2.35;;
32172;SDS011;18679;45.190;5.722;2023-06-05T11:08:17;9.55;;;2.15;;
32172;SDS011;18679;45.190;5.722;2023-06-05T11:11:20;2.80;;;1.98;;
32172;SDS011;18679;45.190;5.722;2023-06-05T11:14:21;4.65;;;2.65;;
32172;SDS011;18679;45.190;5.722;2023-06-05T11:17:25;3.70;;;2.28;;
32172;SDS011;18679;45.190;5.722;2023-06-05T11:23:28;5.00;;;2.30;;
32172;SDS011;18679;45.190;5.722;2023-06-05T11:26:39;5.55;;;2.17;;
32172;SDS011;18679;45.190;5.722;2023-06-05T11:29:42;2.70;;;2.10;;
32172;SDS011;18679;45.190;5.722;2023-06-05T11:32:44;2.15;;;1.85;;
32172;SDS011;18679;45.190;5.722;2023-06-05T11:35:46;5.32;;;2.55;;
32172;SDS011;18679;45.190;5.722;2023-06-05T11:38:54;4.53;;;1.85;;
32172;SDS011;18679;45.190;5.722;2023-06-05T11:41:58;3.08;;;2.15;;
32172;SDS011;18679;45.190;5.722;2023-06-05T11:44:59;4.28;;;2.20;;
32172;SDS011;18679;45.190;5.722;2023-06-05T11:48:03;4.95;;;2.75;;
32172;SDS011;18679;45.190;5.722;2023-06-05T11:51:08;4.90;;;2.40;;
32172;SDS011;18679;45.190;5.722;2023-06-05T11:54:09;5.32;;;2.17;;
32172;SDS011;18679;45.190;5.722;2023-06-05T11:57:15;5.00;;;2.38;;
32172;SDS011;18679;45.190;5.722;2023-06-05T12:00:23;4.07;;;2.20;;
32172;SDS011;18679;45.190;5.722;2023-06-05T12:03:26;7.10;;;2.53;;
32172;SDS011;18679;45.190;5.722;2023-06-05T12:06:28;10.85;;;2.40;;
32172;SDS011;18679;45.190;5.722;2023-06-05T12:09:29;3.50;;;2.45;;
32172;SDS011;18679;45.190;5.722;2023-06-05T12:12:30;6.70;;;2.35;;
32172;SDS011;18679;45.190;5.722;2023-06-05T12:15:31;4.65;;;2.30;;
32172;SDS011;18679;45.190;5.722;2023-06-05T12:18:34;4.40;;;2.63;;
32172;SDS011;18679;45.190;5.722;2023-06-05T12:21:35;4.03;;;2.63;;
32172;SDS011;18679;45.190;5.722;2023-06-05T12:24:36;4.85;;;2.85;;
32172;SDS011;18679;45.190;5.722;2023-06-05T12:27:37;8.00;;;3.30;;
32172;SDS011;18679;45.190;5.722;2023-06-05T12:30:41;6.03;;;2.53;;
32172;SDS011;18679;45.190;5.722;2023-06-05T12:33:48;7.28;;;2.40;;
32172;SDS011;18679;45.190;5.722;2023-06-05T12:36:50;5.28;;;2.22;;
32172;SDS011;18679;45.190;5.722;2023-06-05T12:39:51;8.25;;;2.85;;
32172;SDS011;18679;45.190;5.722;2023-06-05T12:42:52;5.10;;;2.85;;
32172;SDS011;18679;45.190;5.722;2023-06-05T12:45:53;4.57;;;2.63;;
32172;SDS011;18679;45.190;5.722;2023-06-05T12:48:54;6.25;;;2.72;;
32172;SDS011;18679;45.190;5.722;2023-06-05T12:51:55;7.32;;;2.50;;
32172;SDS011;18679;45.190;5.722;2023-06-05T12:54:57;8.38;;;3.13;;
32172;SDS011;18679;45.190;5.722;2023-06-05T12:57:58;6.20;;;2.95;;
32172;SDS011;18679;45.190;5.722;2023-06-05T13:00:59;9.40;;;3.13;;
32172;SDS011;18679;45.190;5.722;2023-06-05T13:04:00;6.10;;;3.08;;
32172;SDS011;18679;45.190;5.722;2023-06-05T13:07:00;4.13;;;3.05;;
32172;SDS011;18679;45.190;5.722;2023-06-05T13:10:01;3.10;;;2.60;;
32172;SDS011;18679;45.190;5.722;2023-06-05T13:13:03;5.25;;;3.00;;
32172;SDS011;18679;45.190;5.722;2023-06-05T13:16:04;4.65;;;2.90;;
32172;SDS011;18679;45.190;5.722;2023-06-05T13:19:07;9.00;;;2.50;;
32172;SDS011;18679;45.190;5.722;2023-06-05T13:22:07;7.75;;;2.40;;
32172;SDS011;18679;45.190;5.722;2023-06-05T13:25:08;9.07;;;3.20;;
32172;SDS011;18679;45.190;5.722;2023-06-05T13:28:09;5.10;;;2.58;;
32172;SDS011;18679;45.190;5.722;2023-06-05T13:31:10;9.52;;;3.22;;
32172;SDS011;18679;45.190;5.722;2023-06-05T13:34:13;20.95;;;3.38;;
32172;SDS011;18679;45.190;5.722;2023-06-05T13:37:14;3.95;;;2.72;;
32172;SDS011;18679;45.190;5.722;2023-06-05T13:40:15;11.43;;;2.83;;
32172;SDS011;18679;45.190;5.722;2023-06-05T13:43:16;5.60;;;2.70;;
32172;SDS011;18679;45.190;5.722;2023-06-05T13:46:17;4.50;;;3.28;;
32172;SDS011;18679;45.190;5.722;2023-06-05T13:49:17;4.03;;;3.13;;
32172;SDS011;18679;45.190;5.722;2023-06-05T13:52:18;3.30;;;2.55;;
32172;SDS011;18679;45.190;5.722;2023-06-05T13:55:20;3.85;;;2.65;;
32172;SDS011;18679;45.190;5.722;2023-06-05T13:58:22;6.32;;;2.83;;
32172;SDS011;18679;45.190;5.722;2023-06-05T14:01:23;13.75;;;3.45;;
32172;SDS011;18679;45.190;5.722;2023-06-05T14:04:24;9.10;;;2.90;;
32172;SDS011;18679;45.190;5.722;2023-06-05T14:07:25;7.45;;;2.90;;
32172;SDS011;18679;45.190;5.722;2023-06-05T14:10:26;5.93;;;2.80;;
32172;SDS011;18679;45.190;5.722;2023-06-05T14:13:27;4.78;;;3.17;;
32172;SDS011;18679;45.190;5.722;2023-06-05T14:16:27;7.50;;;3.15;;
32172;SDS011;18679;45.190;5.722;2023-06-05T14:19:28;7.40;;;2.90;;
32172;SDS011;18679;45.190;5.722;2023-06-05T14:22:29;3.28;;;2.80;;
32172;SDS011;18679;45.190;5.722;2023-06-05T14:25:30;4.70;;;2.75;;
32172;SDS011;18679;45.190;5.722;2023-06-05T14:28:31;3.63;;;2.85;;
32172;SDS011;18679;45.190;5.722;2023-06-05T14:31:32;5.20;;;2.60;;
32172;SDS011;18679;45.190;5.722;2023-06-05T14:34:32;6.70;;;2.97;;
32172;SDS011;18679;45.190;5.722;2023-06-05T14:37:33;5.47;;;2.85;;
32172;SDS011;18679;45.190;5.722;2023-06-05T14:40:34;4.50;;;3.00;;
32172;SDS011;18679;45.190;5.722;2023-06-05T14:43:35;3.95;;;2.70;;
32172;SDS011;18679;45.190;5.722;2023-06-05T14:46:36;3.53;;;2.90;;
32172;SDS011;18679;45.190;5.722;2023-06-05T14:49:37;4.45;;;2.83;;
32172;SDS011;18679;45.190;5.722;2023-06-05T14:52:38;3.22;;;2.72;;
32172;SDS011;18679;45.190;5.722;2023-06-05T14:55:39;5.30;;;2.60;;
32172;SDS011;18679;45.190;5.722;2023-06-05T14:58:39;5.32;;;2.72;;
32172;SDS011;18679;45.190;5.722;2023-06-05T15:01:40;5.43;;;2.40;;
32172;SDS011;18679;45.190;5.722;2023-06-05T15:04:42;4.03;;;2.85;;
32172;SDS011;18679;45.190;5.722;2023-06-05T15:07:43;7.82;;;2.78;;
32172;SDS011;18679;45.190;5.722;2023-06-05T15:10:44;3.38;;;2.70;;
32172;SDS011;18679;45.190;5.722;2023-06-05T15:13:45;6.38;;;2.78;;
32172;SDS011;18679;45.190;5.722;2023-06-05T15:16:46;5.72;;;2.55;;
32172;SDS011;18679;45.190;5.722;2023-06-05T15:19:47;8.73;;;2.70;;
32172;SDS011;18679;45.190;5.722;2023-06-05T15:22:48;4.15;;;2.58;;
32172;SDS011;18679;45.190;5.722;2023-06-05T15:25:49;5.97;;;2.88;;
32172;SDS011;18679;45.190;5.722;2023-06-05T15:28:49;3.83;;;2.45;;
32172;SDS011;18679;45.190;5.722;2023-06-05T15:31:50;3.60;;;2.67;;
32172;SDS011;18679;45.190;5.722;2023-06-05T15:34:51;13.40;;;3.40;;
32172;SDS011;18679;45.190;5.722;2023-06-05T15:37:52;4.13;;;2.70;;
32172;SDS011;18679;45.190;5.722;2023-06-05T15:40:54;9.18;;;2.78;;
32172;SDS011;18679;45.190;5.722;2023-06-05T15:43:55;5.38;;;2.75;;
32172;SDS011;18679;45.190;5.722;2023-06-05T15:46:56;4.10;;;2.85;;
32172;SDS011;18679;45.190;5.722;2023-06-05T15:49:57;6.57;;;2.90;;
32172;SDS011;18679;45.190;5.722;2023-06-05T15:52:58;8.90;;;2.95;;
32172;SDS011;18679;45.190;5.722;2023-06-05T15:55:59;5.20;;;3.10;;
32172;SDS011;18679;45.190;5.722;2023-06-05T15:59:01;3.60;;;3.10;;
32172;SDS011;18679;45.190;5.722;2023-06-05T16:02:02;9.10;;;2.70;;
32172;SDS011;18679;45.190;5.722;2023-06-05T16:05:03;4.00;;;2.80;;
32172;SDS011;18679;45.190;5.722;2023-06-05T16:08:06;5.55;;;3.08;;
32172;SDS011;18679;45.190;5.722;2023-06-05T16:11:07;4.30;;;2.88;;
32172;SDS011;18679;45.190;5.722;2023-06-05T16:14:09;7.75;;;3.05;;
32172;SDS011;18679;45.190;5.722;2023-06-05T16:17:09;5.20;;;3.53;;
32172;SDS011;18679;45.190;5.722;2023-06-05T16:20:11;5.53;;;2.95;;
32172;SDS011;18679;45.190;5.722;2023-06-05T16:23:11;7.47;;;3.47;;
32172;SDS011;18679;45.190;5.722;2023-06-05T16:26:12;5.95;;;3.75;;
32172;SDS011;18679;45.190;5.722;2023-06-05T16:29:13;9.43;;;3.20;;
32172;SDS011;18679;45.190;5.722;2023-06-05T16:32:15;7.53;;;3.20;;
32172;SDS011;18679;45.190;5.722;2023-06-05T16:35:16;3.90;;;2.85;;
32172;SDS011;18679;45.190;5.722;2023-06-05T16:38:17;4.43;;;2.85;;
32172;SDS011;18679;45.190;5.722;2023-06-05T16:41:18;6.78;;;2.92;;
32172;SDS011;18679;45.190;5.722;2023-06-05T16:44:19;6.43;;;3.00;;
32172;SDS011;18679;45.190;5.722;2023-06-05T16:47:20;4.22;;;2.97;;
32172;SDS011;18679;45.190;5.722;2023-06-05T16:50:20;4.07;;;2.75;;
32172;SDS011;18679;45.190;5.722;2023-06-05T16:53:21;5.97;;;2.97;;
32172;SDS011;18679;45.190;5.722;2023-06-05T16:56:22;3.72;;;2.65;;
32172;SDS011;18679;45.190;5.722;2023-06-05T16:59:23;3.22;;;2.78;;
32172;SDS011;18679;45.190;5.722;2023-06-05T17:02:24;4.15;;;2.90;;
32172;SDS011;18679;45.190;5.722;2023-06-05T17:05:25;4.28;;;3.03;;
32172;SDS011;18679;45.190;5.722;2023-06-05T17:08:26;4.95;;;2.97;;
32172;SDS011;18679;45.190;5.722;2023-06-05T17:11:27;6.97;;;3.17;;
32172;SDS011;18679;45.190;5.722;2023-06-05T17:14:27;3.85;;;3.00;;
32172;SDS011;18679;45.190;5.722;2023-06-05T17:17:28;7.93;;;2.92;;
32172;SDS011;18679;45.190;5.722;2023-06-05T17:20:29;7.68;;;3.72;;
32172;SDS011;18679;45.190;5.722;2023-06-05T17:23:30;7.15;;;2.90;;
32172;SDS011;18679;45.190;5.722;2023-06-05T17:26:31;4.97;;;2.95;;
32172;SDS011;18679;45.190;5.722;2023-06-05T17:29:32;5.75;;;3.17;;
32172;SDS011;18679;45.190;5.722;2023-06-05T17:32:33;9.13;;;3.40;;
32172;SDS011;18679;45.190;5.722;2023-06-05T17:35:33;5.78;;;3.05;;
32172;SDS011;18679;45.190;5.722;2023-06-05T17:38:34;7.05;;;3.22;;
32172;SDS011;18679;45.190;5.722;2023-06-05T17:41:36;5.35;;;3.28;;
32172;SDS011;18679;45.190;5.722;2023-06-05T17:44:37;4.43;;;3.55;;
32172;SDS011;18679;45.190;5.722;2023-06-05T17:47:38;5.45;;;2.95;;
32172;SDS011;18679;45.190;5.722;2023-06-05T17:50:39;4.90;;;2.92;;
32172;SDS011;18679;45.190;5.722;2023-06-05T17:53:40;6.38;;;3.50;;
32172;SDS011;18679;45.190;5.722;2023-06-05T17:56:40;8.38;;;3.10;;
32172;SDS011;18679;45.190;5.722;2023-06-05T17:59:41;7.50;;;2.92;;
32172;SDS011;18679;45.190;5.722;2023-06-05T18:02:42;5.43;;;3.28;;
32172;SDS011;18679;45.190;5.722;2023-06-05T18:05:43;8.38;;;3.00;;
32172;SDS011;18679;45.190;5.722;2023-06-05T18:08:44;4.88;;;3.13;;
32172;SDS011;18679;45.190;5.722;2023-06-05T18:11:45;5.63;;;3.20;;
32172;SDS011;18679;45.190;5.722;2023-06-05T18:14:48;6.22;;;3.08;;
32172;SDS011;18679;45.190;5.722;2023-06-05T18:17:50;12.38;;;3.33;;
32172;SDS011;18679;45.190;5.722;2023-06-05T18:20:50;7.03;;;3.13;;
32172;SDS011;18679;45.190;5.722;2023-06-05T18:23:51;6.15;;;2.83;;
32172;SDS011;18679;45.190;5.722;2023-06-05T18:26:52;5.00;;;3.75;;
32172;SDS011;18679;45.190;5.722;2023-06-05T18:29:57;4.60;;;3.50;;
32172;SDS011;18679;45.190;5.722;2023-06-05T18:32:58;8.57;;;3.58;;
32172;SDS011;18679;45.190;5.722;2023-06-05T18:35:59;9.50;;;3.00;;
32172;SDS011;18679;45.190;5.722;2023-06-05T18:38:59;4.28;;;3.20;;
32172;SDS011;18679;45.190;5.722;2023-06-05T18:42:00;6.35;;;3.47;;